Time;durP1;ratioP1;P1;durP2;ratioP2;P2;SDS_P1;SDS_P2;PMS_P1;PMS_P2;Temp;Humidity;BMP_temperature;BMP_pressure;BME280_temperature;BME280_humidity;BME280_pressure;Samples;Min_cycle;Max_cycle;Signal;HPM_P1;HPM_P2
2022/03/17 00:00:55;;;;;;;;;;;;;;;8.78;67.26;101163.31;5018963;28;1291;-91
2022/03/17 00:03:21;;;;;;;;;;;;;;;8.77;66.71;101151.56;5014887;28;1570;-90
2022/03/17 00:05:46;;;;;;;;;;;;;;;8.77;67.73;101148.84;4999285;28;1190;-90
2022/03/17 00:08:11;;;;;;;;;;;;;;;8.70;67.36;101162.69;4998879;28;1190;-90
2022/03/17 00:10:36;;;;;;;;;;;;;;;8.68;67.33;101164.00;5010742;28;1898;-90
2022/03/17 00:13:02;;;;;;;;;;;;;;;8.70;67.44;101170.88;5018118;28;1351;-90
2022/03/17 00:15:27;;;;;;;;;;;;;;;8.69;66.98;101161.03;5018834;28;1410;-90
2022/03/17 00:17:53;;;;;;;;;;;;;;;8.66;68.03;101161.53;5018240;28;1527;-90
2022/03/17 00:20:19;;;;;;;;;;;;;;;8.64;67.97;101154.69;5018229;28;1497;-91
2022/03/17 00:22:44;;;;;;;;;;;;;;;8.58;68.17;101159.25;5018795;28;1410;-91
2022/03/17 00:25:10;;;;;;;;;;;;;;;8.59;68.35;101154.63;5018070;28;1111;-90
2022/03/17 00:27:35;;;;;;;;;;;;;;;8.63;68.19;101159.31;5018207;28;1363;-91
2022/03/17 00:30:01;;;;;;;;;;;;;;;8.64;68.11;101160.13;4999214;28;1245;-90
2022/03/17 00:32:26;;;;;;;;;;;;;;;8.66;67.73;101160.72;5018058;28;1890;-90
2022/03/17 00:37:35;;;;;;;;;;;;;;;8.63;67.95;101162.03;5021909;28;1228;-91
2022/03/17 00:40:00;;;;;;;;;;;;;;;8.64;68.02;101171.88;5026537;28;1606;-90
2022/03/17 00:42:27;;;;;;;;;;;;;;;8.64;67.65;101162.88;4998090;28;1180;-90
2022/03/17 00:44:54;;;;;;;;;;;;;;;8.62;67.87;101167.75;4997614;28;1309;-90
2022/03/17 00:47:19;;;;;;;;;;;;;;;8.62;67.41;101165.84;5011969;28;1517;-90
2022/03/17 00:49:44;;;;;;;;;;;;;;;8.66;67.81;101153.34;5017248;28;1521;-90
2022/03/17 00:52:11;;;;;;;;;;;;;;;8.69;67.74;101154.72;5017585;28;1902;-90
2022/03/17 00:54:39;;;;;;;;;;;;;;;8.69;67.75;101152.84;5017155;28;1267;-90
2022/03/17 00:57:05;;;;;;;;;;;;;;;8.72;67.47;101148.78;5017458;28;1222;-90
2022/03/17 00:59:30;;;;;;;;;;;;;;;8.77;67.89;101148.00;5017473;28;1351;-90
2022/03/17 01:01:55;;;;;;;;;;;;;;;8.79;66.90;101151.31;5034741;28;1448;-91
2022/03/17 01:04:20;;;;;;;;;;;;;;;8.73;67.34;101143.09;5017025;28;1208;-91
2022/03/17 01:06:46;;;;;;;;;;;;;;;8.73;66.91;101147.72;5017488;28;1242;-91
2022/03/17 01:09:11;;;;;;;;;;;;;;;8.72;67.31;101144.16;5002357;28;1300;-90
2022/03/17 01:11:36;;;;;;;;;;;;;;;8.72;66.95;101148.78;4997522;28;1957;-90
2022/03/17 01:14:01;;;;;;;;;;;;;;;8.74;67.32;101146.63;5000148;28;1645;-91
2022/03/17 01:16:26;;;;;;;;;;;;;;;8.72;67.38;101143.31;5034525;28;1366;-90
2022/03/17 01:18:51;;;;;;;;;;;;;;;8.72;67.98;101144.16;5016786;28;1390;-90
2022/03/17 01:21:17;;;;;;;;;;;;;;;8.70;67.74;101151.75;5016838;28;973;-90
2022/03/17 01:23:42;;;;;;;;;;;;;;;8.71;68.19;101149.88;5016820;28;1013;-90
2022/03/17 01:26:07;;;;;;;;;;;;;;;8.71;67.38;101153.41;5016950;28;1339;-90
2022/03/17 01:28:32;;;;;;;;;;;;;;;8.68;67.37;101150.34;5017100;28;1347;-91
2022/03/17 01:30:57;;;;;;;;;;;;;;;8.65;67.35;101148.97;5016793;28;1965;-91
2022/03/17 01:33:22;;;;;;;;;;;;;;;8.64;67.39;101151.94;5016746;28;1193;-91
2022/03/17 01:35:48;;;;;;;;;;;;;;;8.68;67.72;101147.63;5010103;28;1201;-91
2022/03/17 01:38:13;;;;;;;;;;;;;;;8.68;67.61;101156.63;4997198;28;1243;-90
2022/03/17 01:40:38;;;;;;;;;;;;;;;8.68;67.07;101147.63;5013793;28;1471;-91
2022/03/17 01:43:03;;;;;;;;;;;;;;;8.71;67.64;101155.31;5016427;28;913;-90
2022/03/17 01:45:28;;;;;;;;;;;;;;;8.70;67.14;101154.50;5014295;28;1567;-90
2022/03/17 01:47:53;;;;;;;;;;;;;;;8.69;66.77;101155.56;4996877;28;1384;-91
2022/03/17 01:50:19;;;;;;;;;;;;;;;8.66;67.04;101139.72;4997060;28;1289;-91
2022/03/17 01:52:45;;;;;;;;;;;;;;;8.65;67.02;101148.97;4997140;28;1903;-91
2022/03/17 01:55:11;;;;;;;;;;;;;;;8.63;67.13;101145.66;4996660;28;1173;-90
2022/03/17 01:57:36;;;;;;;;;;;;;;;8.65;67.42;101148.16;5014638;28;1055;-91
2022/03/17 02:00:04;;;;;;;;;;;;;;;8.65;68.37;101140.78;5001650;28;1634;-91
2022/03/17 02:02:29;;;;;;;;;;;;;;;8.65;67.48;101146.25;5034818;28;1078;-91
2022/03/17 02:04:54;;;;;;;;;;;;;;;8.63;67.30;101147.56;5033900;28;1342;-91
2022/03/17 02:07:20;;;;;;;;;;;;;;;8.61;67.97;101141.53;5016494;28;1225;-91
2022/03/17 02:09:45;;;;;;;;;;;;;;;8.59;67.37;101136.31;5014004;28;1377;-90
2022/03/17 02:14:59;;;;;;;;;;;;;;;8.59;67.98;101133.59;5027555;28;1480;-90
2022/03/17 02:17:26;;;;;;;;;;;;;;;8.62;67.55;101137.72;5016568;28;1472;-90
2022/03/17 02:19:52;;;;;;;;;;;;;;;8.63;67.23;101133.91;5032902;28;1205;-91
2022/03/17 02:22:18;;;;;;;;;;;;;;;8.63;67.11;101131.19;5016089;28;1365;-90
2022/03/17 02:27:29;;;;;;;;;;;;;;;8.62;67.25;101124.09;5034062;28;699;-91
2022/03/17 02:29:54;;;;;;;;;;;;;;;8.60;67.58;101124.31;5015880;28;1352;-90
2022/03/17 02:32:20;;;;;;;;;;;;;;;8.61;67.72;101125.97;5001517;28;1953;-90
2022/03/17 02:34:45;;;;;;;;;;;;;;;8.61;67.80;101123.25;5015068;28;1455;-90
2022/03/17 02:37:12;;;;;;;;;;;;;;;8.62;67.26;101122.19;5015961;28;1396;-90
2022/03/17 02:39:38;;;;;;;;;;;;;;;8.64;68.00;101113.75;5016187;28;1260;-90
2022/03/17 02:42:03;;;;;;;;;;;;;;;8.64;67.12;101119.19;5016437;28;1581;-91
2022/03/17 02:44:28;;;;;;;;;;;;;;;8.62;67.34;101113.16;5019565;28;1541;-90
2022/03/17 02:46:53;;;;;;;;;;;;;;;8.63;68.20;101114.81;5020224;28;815;-91
2022/03/17 02:49:18;;;;;;;;;;;;;;;8.62;67.20;101124.09;5019818;28;1323;-91
2022/03/17 02:51:46;;;;;;;;;;;;;;;8.61;67.94;101122.44;5019606;28;1947;-91
2022/03/17 02:54:11;;;;;;;;;;;;;;;8.58;67.32;101125.69;5027079;28;1472;-91
2022/03/17 02:56:36;;;;;;;;;;;;;;;8.60;67.40;101116.13;5000473;28;1274;-91
2022/03/17 02:59:01;;;;;;;;;;;;;;;8.64;68.08;101122.75;5001565;28;1330;-91
2022/03/17 03:01:27;;;;;;;;;;;;;;;8.65;67.44;101116.22;5019564;28;1325;-91
2022/03/17 03:03:52;;;;;;;;;;;;;;;8.64;68.15;101114.56;5019592;28;1288;-91
2022/03/17 03:06:17;;;;;;;;;;;;;;;8.65;67.14;101120.84;5019555;28;970;-91
2022/03/17 03:08:42;;;;;;;;;;;;;;;8.65;67.17;101126.31;5019269;28;1193;-90
2022/03/17 03:11:07;;;;;;;;;;;;;;;8.65;67.13;101121.69;5007877;28;1941;-91
2022/03/17 03:13:32;;;;;;;;;;;;;;;8.64;67.64;101114.56;5006513;28;1552;-91
2022/03/17 03:15:57;;;;;;;;;;;;;;;8.63;67.91;101118.38;5009474;28;1291;-91
2022/03/17 03:18:22;;;;;;;;;;;;;;;8.62;67.76;101116.72;5015813;28;1089;-91
2022/03/17 03:20:48;;;;;;;;;;;;;;;8.61;68.16;101119.69;5019562;28;1496;-90
2022/03/17 03:23:13;;;;;;;;;;;;;;;8.62;67.85;101116.72;5019226;28;1048;-90
2022/03/17 03:25:38;;;;;;;;;;;;;;;8.61;67.79;101115.06;5019290;28;1247;-91
2022/03/17 03:28:07;;;;;;;;;;;;;;;8.62;67.98;101116.72;5019559;28;1008;-90
2022/03/17 03:30:49;;;;;;;;;;;;;;;8.61;67.94;101108.78;5019253;28;1555;-91
2022/03/17 03:33:14;;;;;;;;;;;;;;;8.62;67.76;101113.16;5019543;28;1292;-90
2022/03/17 03:38:23;;;;;;;;;;;;;;;8.61;67.07;101111.50;5037156;28;627;-91
2022/03/17 03:40:48;;;;;;;;;;;;;;;8.63;67.99;101107.47;5036743;28;1441;-92
2022/03/17 03:43:13;;;;;;;;;;;;;;;8.66;67.00;101100.69;5019278;28;1514;-90
2022/03/17 03:45:39;;;;;;;;;;;;;;;8.68;66.59;101099.31;5037043;28;1463;-91
2022/03/17 03:48:04;;;;;;;;;;;;;;;8.69;66.69;101095.53;5018616;28;957;-91
2022/03/17 03:50:30;;;;;;;;;;;;;;;8.71;67.46;101087.91;5018591;28;1181;-90
2022/03/17 03:52:56;;;;;;;;;;;;;;;8.70;67.49;101094.44;5019186;28;1965;-90
2022/03/17 03:55:21;;;;;;;;;;;;;;;8.70;66.74;101101.81;5017720;28;1259;-90
2022/03/17 03:57:48;;;;;;;;;;;;;;;8.71;66.86;101098.84;5019312;28;1423;-91
2022/03/17 04:00:24;;;;;;;;;;;;;;;8.69;66.63;101102.88;5018813;28;1209;-91
2022/03/17 04:02:51;;;;;;;;;;;;;;;8.70;66.19;101101.81;5018690;28;1240;-90
2022/03/17 04:05:17;;;;;;;;;;;;;;;8.72;66.30;101095.03;5018037;28;1424;-91
2022/03/17 04:07:43;;;;;;;;;;;;;;;8.70;66.32;101099.09;5018768;28;1252;-91
2022/03/17 04:10:08;;;;;;;;;;;;;;;8.68;66.82;101110.25;5051836;28;1276;-91
2022/03/17 04:12:33;;;;;;;;;;;;;;;8.66;66.03;101100.69;5051616;28;1910;-91
2022/03/17 04:14:59;;;;;;;;;;;;;;;8.66;66.26;101104.25;5039444;28;1335;-91
2022/03/17 04:17:24;;;;;;;;;;;;;;;8.66;65.66;101101.50;5018144;28;1485;-91
2022/03/17 04:19:49;;;;;;;;;;;;;;;8.68;66.26;101107.50;5018463;28;1213;-90
2022/03/17 04:22:14;;;;;;;;;;;;;;;8.69;65.39;101106.44;5017870;28;1342;-90
2022/03/17 04:24:39;;;;;;;;;;;;;;;8.68;66.06;101104.78;5017823;28;1216;-90
2022/03/17 04:27:06;;;;;;;;;;;;;;;8.68;65.33;101109.41;5017953;28;1662;-91
2022/03/17 04:29:32;;;;;;;;;;;;;;;8.69;65.79;101100.97;5018050;28;1383;-90
2022/03/17 04:31:57;;;;;;;;;;;;;;;8.70;65.61;101108.09;5017823;28;1959;-90
2022/03/17 04:34:22;;;;;;;;;;;;;;;8.68;65.95;101096.59;5017545;28;1124;-90
2022/03/17 04:36:47;;;;;;;;;;;;;;;8.70;66.34;101113.56;5017750;28;1341;-90
2022/03/17 04:39:12;;;;;;;;;;;;;;;8.71;66.09;101112.47;5017483;28;1451;-91
2022/03/17 04:41:39;;;;;;;;;;;;;;;8.69;65.17;101114.63;5017947;28;1321;-91
2022/03/17 04:44:05;;;;;;;;;;;;;;;8.71;65.81;101109.75;5035173;28;841;-90
2022/03/17 04:46:30;;;;;;;;;;;;;;;8.69;65.68;101122.81;5017575;28;1297;-90
2022/03/17 04:48:55;;;;;;;;;;;;;;;8.69;65.61;101122.81;5017098;28;1443;-89
2022/03/17 04:51:20;;;;;;;;;;;;;;;8.69;65.98;101127.44;5017206;28;1897;-90
2022/03/17 04:53:45;;;;;;;;;;;;;;;8.69;65.02;101135.63;5017206;28;984;-90
2022/03/17 04:56:12;;;;;;;;;;;;;;;8.71;65.13;101130.75;5017686;28;1219;-90
2022/03/17 04:58:38;;;;;;;;;;;;;;;8.70;65.68;101143.56;5017568;28;1308;-90
2022/03/17 05:01:04;;;;;;;;;;;;;;;8.67;65.89;101146.81;5010706;28;1413;-90
2022/03/17 05:03:30;;;;;;;;;;;;;;;8.68;65.93;101153.91;4997241;28;1197;-90
2022/03/17 05:05:55;;;;;;;;;;;;;;;8.66;66.04;101158.81;5003309;28;1493;-90
2022/03/17 05:08:20;;;;;;;;;;;;;;;8.60;65.94;101165.25;5017304;28;1227;-90
2022/03/17 05:10:47;;;;;;;;;;;;;;;8.60;66.14;101161.69;5016786;28;1882;-91
2022/03/17 05:13:13;;;;;;;;;;;;;;;8.60;65.74;101162.53;5017941;28;1424;-90
2022/03/17 05:15:38;;;;;;;;;;;;;;;8.58;65.21;101164.72;5017236;28;1465;-90
2022/03/17 05:18:07;;;;;;;;;;;;;;;8.61;65.87;101160.63;5017353;28;1208;-89
2022/03/17 05:20:36;;;;;;;;;;;;;;;8.62;66.04;101162.28;5016752;28;1484;-90
2022/03/17 05:23:02;;;;;;;;;;;;;;;8.61;66.12;101160.63;5016576;28;1304;-89
2022/03/17 05:25:28;;;;;;;;;;;;;;;8.58;66.19;101164.72;5016885;28;1383;-90
2022/03/17 05:28:03;;;;;;;;;;;;;;;8.58;66.01;101163.88;5028811;28;1394;-89
2022/03/17 05:30:28;;;;;;;;;;;;;;;8.59;66.17;101163.59;5016805;28;1367;-90
2022/03/17 05:32:54;;;;;;;;;;;;;;;8.59;66.47;101171.00;5016852;28;1894;-90
2022/03/17 05:35:19;;;;;;;;;;;;;;;8.58;66.65;101167.44;5016735;28;1223;-90
2022/03/17 05:37:45;;;;;;;;;;;;;;;8.61;66.46;101172.38;5010435;28;1380;-91
2022/03/17 05:40:14;;;;;;;;;;;;;;;8.59;65.92;101177.25;5013105;28;1363;-89
2022/03/17 05:42:40;;;;;;;;;;;;;;;8.56;66.05;101172.31;5014299;28;1488;-89
2022/03/17 05:45:05;;;;;;;;;;;;;;;8.56;65.87;101174.22;5016516;28;1477;-90
2022/03/17 05:47:37;;;;;;;;;;;;;;;8.55;65.01;101176.13;5016368;28;1154;-88
2022/03/17 05:50:04;;;;;;;;;;;;;;;8.57;65.39;101178.59;4998536;28;1410;-88
2022/03/17 05:52:31;;;;;;;;;;;;;;;8.57;65.49;101179.44;4996444;28;1898;-89
2022/03/17 05:54:57;;;;;;;;;;;;;;;8.54;65.25;101179.91;5021319;28;1589;-89
2022/03/17 05:57:24;;;;;;;;;;;;;;;8.58;65.28;101185.72;5024903;28;1121;-88
2022/03/17 05:59:51;;;;;;;;;;;;;;;8.59;66.08;101188.16;5025070;28;1410;-88
2022/03/17 06:02:16;;;;;;;;;;;;;;;8.66;65.98;101190.75;5016430;28;1214;-88
2022/03/17 06:04:48;;;;;;;;;;;;;;;8.66;66.05;101186.09;5033724;28;1036;-88
2022/03/17 06:07:13;;;;;;;;;;;;;;;8.61;66.02;101190.66;5016013;28;1201;-87
2022/03/17 06:09:38;;;;;;;;;;;;;;;8.64;66.28;101196.44;5032365;28;1336;-88
2022/03/17 06:12:04;;;;;;;;;;;;;;;8.66;66.23;101199.75;5006546;28;1894;-88
2022/03/17 06:14:29;;;;;;;;;;;;;;;8.66;65.69;101204.38;5005333;28;1628;-88
2022/03/17 06:16:55;;;;;;;;;;;;;;;8.65;65.83;101213.66;5033158;28;1339;-87
2022/03/17 06:19:20;;;;;;;;;;;;;;;8.64;65.91;101207.34;5037445;28;1420;-88
2022/03/17 06:21:45;;;;;;;;;;;;;;;8.63;66.01;101213.88;5011909;28;1253;-88
2022/03/17 06:24:10;;;;;;;;;;;;;;;8.67;65.15;101208.78;5006197;28;1502;-88
2022/03/17 06:26:35;;;;;;;;;;;;;;;8.70;64.83;101200.06;5002994;28;1397;-88
2022/03/17 06:29:01;;;;;;;;;;;;;;;8.72;65.60;101208.84;5002676;28;1285;-88
2022/03/17 06:31:26;;;;;;;;;;;;;;;8.78;65.58;101223.38;5020163;28;1964;-88
2022/03/17 06:33:51;;;;;;;;;;;;;;;8.81;64.84;101228.34;5002617;28;711;-88
2022/03/17 06:36:16;;;;;;;;;;;;;;;8.79;65.47;101220.41;5020215;28;829;-88
2022/03/17 06:38:41;;;;;;;;;;;;;;;8.73;65.18;101224.97;5002706;28;1312;-88
2022/03/17 06:41:06;;;;;;;;;;;;;;;8.73;64.88;101224.97;5002838;28;1335;-87
2022/03/17 06:43:32;;;;;;;;;;;;;;;8.83;64.05;101237.09;5002538;28;955;-88
2022/03/17 06:45:57;;;;;;;;;;;;;;;8.84;64.72;101236.88;5020184;28;989;-88
2022/03/17 06:48:22;;;;;;;;;;;;;;;8.84;64.00;101245.06;5020123;28;929;-87
2022/03/17 06:50:47;;;;;;;;;;;;;;;8.89;64.08;101256.03;5020083;28;1898;-88
2022/03/17 06:53:12;;;;;;;;;;;;;;;8.91;63.67;101253.06;5019997;28;961;-88
2022/03/17 06:55:37;;;;;;;;;;;;;;;8.93;64.43;101259.91;5002706;28;1450;-88
2022/03/17 06:58:03;;;;;;;;;;;;;;;8.98;64.45;101261.91;5002521;28;1402;-87
2022/03/17 07:00:28;;;;;;;;;;;;;;;8.98;64.20;101257.25;5008287;28;1791;-88
2022/03/17 07:02:53;;;;;;;;;;;;;;;9.00;63.47;101259.75;5040020;28;1062;-88
2022/03/17 07:05:18;;;;;;;;;;;;;;;9.01;62.79;101256.78;5021867;28;978;-88
2022/03/17 07:07:43;;;;;;;;;;;;;;;9.06;63.25;101258.72;5022464;28;1260;-88
2022/03/17 07:10:11;;;;;;;;;;;;;;;9.05;64.29;101255.16;5021934;28;1272;-88
2022/03/17 07:12:37;;;;;;;;;;;;;;;9.05;63.67;101259.81;5022040;28;1959;-88
2022/03/17 07:15:03;;;;;;;;;;;;;;;9.02;62.88;101277.50;5021940;28;1287;-88
2022/03/17 07:17:34;;;;;;;;;;;;;;;9.06;63.27;101286.03;5021921;28;1374;-89
2022/03/17 07:20:03;;;;;;;;;;;;;;;9.04;63.10;101280.81;5022412;28;1257;-88
2022/03/17 07:22:28;;;;;;;;;;;;;;;9.05;63.48;101277.00;5021903;28;1165;-88
2022/03/17 07:24:54;;;;;;;;;;;;;;;9.05;62.77;101279.75;5021729;28;843;-88
2022/03/17 07:27:21;;;;;;;;;;;;;;;9.06;63.25;101292.31;5022011;28;1213;-88
2022/03/17 07:29:46;;;;;;;;;;;;;;;9.07;63.05;101295.88;5018819;28;1316;-88
2022/03/17 07:32:11;;;;;;;;;;;;;;;9.04;63.38;101299.09;5018825;28;1964;-87
2022/03/17 07:34:36;;;;;;;;;;;;;;;9.07;62.67;101304.06;5036399;28;810;-87
2022/03/17 07:37:02;;;;;;;;;;;;;;;9.08;63.03;101308.47;5018993;28;887;-88
2022/03/17 07:39:27;;;;;;;;;;;;;;;9.06;63.31;101308.72;5036493;28;1196;-88
2022/03/17 07:41:52;;;;;;;;;;;;;;;9.06;62.76;101316.91;5018591;28;999;-88
2022/03/17 07:44:17;;;;;;;;;;;;;;;9.06;62.95;101319.63;5018420;28;1048;-88
2022/03/17 07:46:42;;;;;;;;;;;;;;;9.06;63.51;101319.63;5036211;28;688;-88
2022/03/17 07:49:08;;;;;;;;;;;;;;;9.01;62.90;101325.03;5036146;28;1305;-87
2022/03/17 07:51:33;;;;;;;;;;;;;;;9.05;63.71;101333.53;5018434;28;1957;-88
2022/03/17 07:53:58;;;;;;;;;;;;;;;9.06;63.32;101330.56;5035933;28;838;-88
2022/03/17 07:56:23;;;;;;;;;;;;;;;9.06;63.92;101335.19;5018303;28;1200;-88
2022/03/17 07:58:48;;;;;;;;;;;;;;;9.02;63.54;101329.41;5036251;28;1264;-88
2022/03/17 08:01:14;;;;;;;;;;;;;;;9.05;63.32;101339.00;5018410;28;1272;-87
2022/03/17 08:03:40;;;;;;;;;;;;;;;9.07;63.47;101345.88;5018045;28;1236;-88
2022/03/17 08:06:05;;;;;;;;;;;;;;;9.08;63.92;101344.81;5018143;28;1240;-88
2022/03/17 08:08:30;;;;;;;;;;;;;;;9.06;63.77;101344.22;5018218;28;1247;-87
2022/03/17 08:10:57;;;;;;;;;;;;;;;9.07;64.17;101348.59;5035752;28;1889;-87
2022/03/17 08:13:25;;;;;;;;;;;;;;;9.04;64.34;101346.38;5035606;28;817;-88
2022/03/17 08:15:50;;;;;;;;;;;;;;;9.05;63.82;101358.13;5018032;28;1379;-87
2022/03/17 08:18:15;;;;;;;;;;;;;;;9.04;64.06;101360.00;5018015;28;1367;-88
2022/03/17 08:20:41;;;;;;;;;;;;;;;9.00;64.15;101356.16;5017898;28;1225;-88
2022/03/17 08:23:07;;;;;;;;;;;;;;;9.00;64.41;101358.88;5017647;28;1165;-87
2022/03/17 08:25:32;;;;;;;;;;;;;;;9.02;64.51;101372.25;5017843;28;1242;-88
2022/03/17 08:27:57;;;;;;;;;;;;;;;9.05;65.74;101367.13;5017909;28;1386;-88
2022/03/17 08:30:22;;;;;;;;;;;;;;;9.05;65.74;101377.22;5035721;28;1260;-88
2022/03/17 08:32:48;;;;;;;;;;;;;;;9.08;66.02;101384.94;5035407;28;1957;-88
2022/03/17 08:35:14;;;;;;;;;;;;;;;9.06;67.17;101384.34;5017503;28;1359;-88
2022/03/17 08:37:40;;;;;;;;;;;;;;;9.13;67.65;101392.38;5017654;28;1315;-88
2022/03/17 08:40:05;;;;;;;;;;;;;;;9.12;67.39;101394.28;5035069;28;1323;-88
2022/03/17 08:42:30;;;;;;;;;;;;;;;9.07;67.84;101399.66;5017296;28;1212;-87
2022/03/17 08:44:56;;;;;;;;;;;;;;;9.04;67.67;101398.25;5017323;28;1008;-88
2022/03/17 08:50:05;;;;;;;;;;;;;;;9.01;68.78;101406.97;5035567;28;1233;-88
2022/03/17 08:52:31;;;;;;;;;;;;;;;9.10;68.50;101415.56;5034839;28;1898;-88
2022/03/17 08:54:56;;;;;;;;;;;;;;;9.15;68.33;101415.63;5017215;28;1320;-88
2022/03/17 08:57:22;;;;;;;;;;;;;;;9.14;68.04;101421.34;5017347;28;1355;-88
2022/03/17 08:59:47;;;;;;;;;;;;;;;9.14;68.80;101424.06;5017313;28;1268;-88
2022/03/17 09:02:14;;;;;;;;;;;;;;;9.16;69.42;101425.50;5017125;28;1295;-88
2022/03/17 09:04:39;;;;;;;;;;;;;;;9.18;69.19;101426.06;5016899;28;1257;-88
2022/03/17 09:07:05;;;;;;;;;;;;;;;9.19;69.21;101429.59;5017108;28;1256;-88
2022/03/17 09:09:32;;;;;;;;;;;;;;;9.09;69.02;101431.13;5034520;28;1216;-88
2022/03/17 09:11:57;;;;;;;;;;;;;;;9.06;68.42;101434.34;5016941;28;1894;-88
2022/03/17 09:14:23;;;;;;;;;;;;;;;9.09;69.01;101433.84;5016662;28;1194;-88
2022/03/17 09:16:49;;;;;;;;;;;;;;;9.07;70.46;101427.81;5034609;28;806;-88
2022/03/17 09:19:14;;;;;;;;;;;;;;;9.08;70.42;101434.09;5016920;28;1406;-88
2022/03/17 09:21:39;;;;;;;;;;;;;;;9.12;69.62;101432.50;5017023;28;1196;-87
2022/03/17 09:24:04;;;;;;;;;;;;;;;9.05;69.81;101440.03;5016516;28;1316;-89
2022/03/17 09:26:33;;;;;;;;;;;;;;;9.00;70.17;101439.97;5017053;28;1311;-88
2022/03/17 09:28:59;;;;;;;;;;;;;;;8.92;70.10;101445.84;5016699;28;1206;-88
2022/03/17 09:31:24;;;;;;;;;;;;;;;8.93;71.14;101451.03;5016553;28;1886;-88
2022/03/17 09:33:49;;;;;;;;;;;;;;;8.89;69.79;101447.16;5034074;28;972;-88
2022/03/17 09:36:16;;;;;;;;;;;;;;;8.87;70.64;101457.47;5016543;28;1271;-88
2022/03/17 09:38:41;;;;;;;;;;;;;;;8.88;70.32;101452.84;5034143;28;1295;-88
2022/03/17 09:41:24;;;;;;;;;;;;;;;8.88;70.65;101461.03;5016392;28;1208;-88
2022/03/17 09:43:49;;;;;;;;;;;;;;;8.88;70.62;101461.03;5034057;28;901;-88
2022/03/17 09:46:15;;;;;;;;;;;;;;;8.86;70.97;101471.38;5016386;28;1195;-88
2022/03/17 09:48:42;;;;;;;;;;;;;;;8.89;71.76;101474.44;5016174;28;1332;-88
2022/03/17 09:51:07;;;;;;;;;;;;;;;8.83;71.65;101471.88;5016573;28;1899;-88
2022/03/17 09:53:32;;;;;;;;;;;;;;;8.79;72.93;101484.34;5015463;28;1208;-88
2022/03/17 09:55:57;;;;;;;;;;;;;;;8.82;73.35;101487.44;5033995;28;1060;-88
2022/03/17 09:58:22;;;;;;;;;;;;;;;8.80;74.03;101495.03;5016282;28;1255;-87
2022/03/17 10:00:47;;;;;;;;;;;;;;;8.69;76.62;101496.72;5016177;28;1213;-88
2022/03/17 10:03:14;;;;;;;;;;;;;;;8.64;74.81;101499.38;5016078;28;833;-87
2022/03/17 10:05:39;;;;;;;;;;;;;;;8.65;76.64;101498.31;5016560;28;1188;-88
2022/03/17 10:08:04;;;;;;;;;;;;;;;8.62;75.22;101498.78;5016142;28;1276;-87
2022/03/17 10:10:36;;;;;;;;;;;;;;;8.67;76.16;101504.34;5016062;28;1273;-87
2022/03/17 10:13:06;;;;;;;;;;;;;;;8.73;75.54;101508.00;5015778;28;1947;-88
2022/03/17 10:15:31;;;;;;;;;;;;;;;8.86;76.28;101523.25;5034070;28;806;-88
2022/03/17 10:17:56;;;;;;;;;;;;;;;8.87;76.85;101527.63;5016051;28;1191;-88
2022/03/17 10:20:25;;;;;;;;;;;;;;;8.85;77.69;101530.59;5016099;28;1260;-88
2022/03/17 10:22:52;;;;;;;;;;;;;;;8.84;78.17;101541.78;5033757;28;853;-88
2022/03/17 10:25:18;;;;;;;;;;;;;;;8.85;78.98;101549.72;5015892;28;1404;-87
2022/03/17 10:27:46;;;;;;;;;;;;;;;8.84;79.17;101542.63;5016028;28;1184;-88
2022/03/17 10:30:32;;;;;;;;;;;;;;;8.72;78.67;101548.13;5015952;28;1328;-88
2022/03/17 10:33:00;;;;;;;;;;;;;;;8.73;79.33;101549.78;5015692;28;1894;-88
2022/03/17 10:35:26;;;;;;;;;;;;;;;8.71;80.69;101557.38;5016023;28;1287;-88
2022/03/17 10:37:51;;;;;;;;;;;;;;;8.68;79.34;101557.84;5015793;28;1201;-88
2022/03/17 10:40:17;;;;;;;;;;;;;;;8.78;79.41;101570.03;5033394;28;1146;-88
2022/03/17 10:42:42;;;;;;;;;;;;;;;8.71;79.56;101581.94;5015810;28;1100;-88
2022/03/17 10:45:07;;;;;;;;;;;;;;;8.67;80.82;101588.13;5015498;28;1213;-88
2022/03/17 10:47:34;;;;;;;;;;;;;;;8.65;81.58;101590.28;5033251;28;1065;-88
2022/03/17 10:50:00;;;;;;;;;;;;;;;8.61;81.49;101598.09;5015587;28;1363;-88
2022/03/17 10:52:25;;;;;;;;;;;;;;;8.57;82.23;101599.66;5015671;28;1898;-88
2022/03/17 10:54:57;;;;;;;;;;;;;;;8.49;82.36;101608.22;5033145;28;1004;-88
2022/03/17 10:57:24;;;;;;;;;;;;;;;8.45;83.61;101617.94;5015703;28;1251;-88
2022/03/17 10:59:52;;;;;;;;;;;;;;;8.43;83.76;101627.41;5015648;28;1503;-88
2022/03/17 11:02:18;;;;;;;;;;;;;;;8.51;84.44;101636.06;5015550;28;1320;-88
2022/03/17 11:04:44;;;;;;;;;;;;;;;8.53;83.36;101630.38;5017745;28;1304;-89
2022/03/17 11:07:13;;;;;;;;;;;;;;;8.44;83.24;101638.09;5019564;28;1375;-87
2022/03/17 11:09:38;;;;;;;;;;;;;;;8.30;84.00;101647.56;5019196;28;1276;-88
2022/03/17 11:12:05;;;;;;;;;;;;;;;8.30;84.14;101650.31;5019384;28;1969;-88
2022/03/17 11:14:31;;;;;;;;;;;;;;;8.34;84.46;101654.22;5019296;28;1192;-88
2022/03/17 11:16:58;;;;;;;;;;;;;;;8.35;84.80;101667.63;5019093;28;1433;-88
2022/03/17 11:19:24;;;;;;;;;;;;;;;8.34;84.42;101667.88;5019109;28;1289;-88
2022/03/17 11:22:04;;;;;;;;;;;;;;;8.30;84.16;101677.59;5036967;28;1016;-87
2022/03/17 11:24:30;;;;;;;;;;;;;;;8.25;84.78;101688.38;5018859;28;1429;-87
2022/03/17 11:27:05;;;;;;;;;;;;;;;8.19;83.74;101700.22;5018976;28;1307;-88
2022/03/17 11:29:37;;;;;;;;;;;;;;;8.16;84.92;101692.53;5018805;28;1225;-88
2022/03/17 11:32:04;;;;;;;;;;;;;;;8.17;84.74;101697.72;5036577;28;1960;-88
2022/03/17 11:34:43;;;;;;;;;;;;;;;8.13;84.65;101696.53;5018594;28;1197;-87
2022/03/17 11:37:15;;;;;;;;;;;;;;;8.12;84.78;101702.22;5019003;28;1374;-88
2022/03/17 11:39:59;;;;;;;;;;;;;;;8.09;84.96;101695.34;5018606;28;1324;-88
2022/03/17 11:42:44;;;;;;;;;;;;;;;8.11;84.96;101697.84;5036336;28;798;-87
2022/03/17 11:45:15;;;;;;;;;;;;;;;8.07;84.81;101707.56;5018496;28;1216;-88
2022/03/17 11:47:43;;;;;;;;;;;;;;;8.11;85.24;101716.91;5018343;28;1312;-87
2022/03/17 11:50:25;;;;;;;;;;;;;;;8.03;84.74;101723.53;5018434;28;1319;-88
2022/03/17 11:53:01;;;;;;;;;;;;;;;7.90;84.99;101723.75;4999220;28;1910;-87
2022/03/17 11:55:51;;;;;;;;;;;;;;;7.87;84.67;101730.50;4998699;28;1214;-88
2022/03/17 11:58:16;;;;;;;;;;;;;;;7.82;83.99;101730.38;4986934;28;1243;-88
2022/03/17 12:01:00;;;;;;;;;;;;;;;7.78;84.15;101736.50;4999009;28;1240;-88
2022/03/17 12:03:27;;;;;;;;;;;;;;;7.80;83.33;101737.94;4998454;28;1207;-87
2022/03/17 12:06:03;;;;;;;;;;;;;;;7.78;83.23;101734.63;4998547;28;1260;-88
2022/03/17 12:08:39;;;;;;;;;;;;;;;7.91;82.72;101741.78;5016123;28;996;-88
2022/03/17 12:11:08;;;;;;;;;;;;;;;7.96;82.45;101742.75;4998497;28;1969;-88
2022/03/17 12:13:36;;;;;;;;;;;;;;;8.04;82.28;101757.09;4998319;28;1202;-88
2022/03/17 12:16:02;;;;;;;;;;;;;;;8.07;81.83;101756.66;5015322;28;836;-88
2022/03/17 12:18:28;;;;;;;;;;;;;;;8.11;81.35;101763.28;4998295;28;1174;-87
2022/03/17 12:20:53;;;;;;;;;;;;;;;8.02;81.04;101762.78;4998184;28;1323;-88
2022/03/17 12:23:37;;;;;;;;;;;;;;;8.04;81.50;101763.38;5015798;28;810;-88
2022/03/17 12:26:05;;;;;;;;;;;;;;;8.09;81.79;101762.69;4998166;28;1260;-88
2022/03/17 12:28:31;;;;;;;;;;;;;;;8.18;81.38;101767.56;4997976;28;1341;-87
2022/03/17 12:30:56;;;;;;;;;;;;;;;8.31;80.51;101766.56;5014245;28;1205;-88
2022/03/17 12:33:22;;;;;;;;;;;;;;;8.33;80.68;101768.00;4997719;28;1886;-88
2022/03/17 12:36:01;;;;;;;;;;;;;;;8.46;79.91;101761.47;4997840;28;1246;-88
2022/03/17 12:38:27;;;;;;;;;;;;;;;8.52;79.91;101774.19;4997917;28;1205;-88
2022/03/17 12:40:53;;;;;;;;;;;;;;;8.51;79.33;101775.25;5014258;28;1339;-88
2022/03/17 12:43:19;;;;;;;;;;;;;;;8.58;80.32;101786.91;5014002;28;1225;-87
2022/03/17 12:45:47;;;;;;;;;;;;;;;8.53;79.20;101792.22;4997885;28;1317;-87
2022/03/17 12:48:12;;;;;;;;;;;;;;;8.37;79.66;101792.06;4997571;28;1198;-88
2022/03/17 12:50:37;;;;;;;;;;;;;;;8.37;79.82;101792.91;4997697;28;1265;-88
2022/03/17 12:53:03;;;;;;;;;;;;;;;8.33;79.39;101797.19;4997594;28;1894;-88
2022/03/17 12:55:29;;;;;;;;;;;;;;;8.32;78.81;101799.06;4997449;28;1297;-88
2022/03/17 12:57:57;;;;;;;;;;;;;;;8.35;79.00;101793.13;5015127;28;814;-88
2022/03/17 13:00:23;;;;;;;;;;;;;;;8.32;79.02;101801.81;4997423;28;1450;-88
2022/03/17 13:02:52;;;;;;;;;;;;;;;8.33;79.46;101798.00;5014923;28;926;-88
2022/03/17 13:08:03;;;;;;;;;;;;;;;8.20;78.82;101798.16;5015313;28;636;-88
2022/03/17 13:10:28;;;;;;;;;;;;;;;8.23;78.67;101799.59;4997468;28;1533;-88